createdAt,value
2018-04-23T00:02:13.861Z,93748.55
2018-04-23T00:04:41.394Z,93748.89
2018-04-23T00:07:08.928Z,93741.69
2018-04-23T00:09:36.609Z,93743.83
2018-04-23T00:12:04.211Z,93742.19
2018-04-23T00:14:31.745Z,93740.63
2018-04-23T00:16:59.464Z,93732.55
2018-04-23T00:19:27.036Z,93734.63
2018-04-23T00:21:54.583Z,93734.22
2018-04-23T00:24:22.304Z,93730.53
2018-04-23T00:26:49.844Z,93720.82
2018-04-23T00:29:17.396Z,93725.76
2018-04-23T00:31:44.987Z,93714.16
2018-04-23T00:34:12.553Z,93711.20
2018-04-23T00:36:40.098Z,93710.52
2018-04-23T00:39:07.763Z,93714.97
2018-04-23T00:41:35.293Z,93719.81
2018-04-23T00:44:02.846Z,93722.44
2018-04-23T00:46:30.432Z,93726.39
2018-04-23T00:48:57.965Z,93721.26
2018-04-23T00:51:25.555Z,93723.88
2018-04-23T00:53:53.131Z,93723.53
2018-04-23T00:56:20.682Z,93728.47
2018-04-23T00:58:48.224Z,93725.23
2018-04-23T01:01:15.811Z,93730.64
2018-04-23T01:03:43.375Z,93733.49
2018-04-23T01:06:10.901Z,93732.12
2018-04-23T01:08:38.481Z,93732.97
2018-04-23T01:11:06.047Z,93737.10
2018-04-23T01:13:33.598Z,93737.01
2018-04-23T01:16:01.487Z,93741.06
2018-04-23T01:18:29.046Z,93741.25
2018-04-23T01:20:56.590Z,93733.05
2018-04-23T01:23:24.173Z,93729.20
2018-04-23T01:25:51.703Z,93730.41
2018-04-23T01:28:19.233Z,93729.11
2018-04-23T01:30:46.800Z,93723.97
2018-04-23T01:33:14.341Z,93719.63
2018-04-23T01:35:41.871Z,93724.89
2018-04-23T01:38:09.670Z,93726.28
2018-04-23T01:40:37.224Z,93731.14
2018-04-23T01:43:04.758Z,93731.37
2018-04-23T01:45:32.344Z,93729.85
2018-04-23T01:47:59.882Z,93733.42
2018-04-23T01:50:27.429Z,93732.38
2018-04-23T01:52:55.150Z,93724.72
2018-04-23T01:55:22.687Z,93722.79
2018-04-23T01:57:50.223Z,93725.92
2018-04-23T02:00:17.932Z,93728.27
2018-04-23T02:02:45.512Z,93730.52
2018-04-23T02:05:13.046Z,93734.88
2018-04-23T02:07:40.626Z,93737.92
2018-04-23T02:10:08.177Z,93743.55
2018-04-23T02:12:35.749Z,93748.67
2018-04-23T02:15:03.308Z,93746.77
2018-04-23T02:17:30.839Z,93751.81
2018-04-23T02:19:58.391Z,93755.91
2018-04-23T02:22:26.105Z,93751.88
2018-04-23T02:24:53.647Z,93752.48
2018-04-23T02:27:21.198Z,93754.80
2018-04-23T02:29:48.916Z,93751.44
2018-04-23T02:32:16.450Z,93753.77
2018-04-23T02:34:43.998Z,93746.84
2018-04-23T02:37:11.569Z,93747.28
2018-04-23T02:39:39.124Z,93747.44
2018-04-23T02:42:06.677Z,93752.59
2018-04-23T02:44:34.219Z,93743.84
2018-04-23T02:47:01.769Z,93739.51
2018-04-23T02:49:29.652Z,93739.09
2018-04-23T02:51:57.204Z,93735.55
2018-04-23T02:54:24.765Z,93740.17
2018-04-23T02:56:52.362Z,93733.00
2018-04-23T02:59:19.916Z,93737.23
2018-04-23T03:01:47.467Z,93746.21
2018-04-23T03:04:15.061Z,93742.89
2018-04-23T03:06:42.608Z,93745.97
2018-04-23T03:09:10.165Z,93748.42
2018-04-23T03:11:37.742Z,93746.25
2018-04-23T03:14:05.280Z,93744.56
2018-04-23T03:16:32.851Z,93744.30
2018-04-23T03:19:00.580Z,93743.06
2018-04-23T03:21:28.118Z,93741.82
2018-04-23T03:23:55.698Z,93747.42
2018-04-23T03:26:23.288Z,93747.10
2018-04-23T03:28:50.838Z,93749.34
2018-04-23T03:31:18.381Z,93756.88
2018-04-23T03:33:46.015Z,93769.13
2018-04-23T03:36:13.552Z,93769.03
2018-04-23T03:38:41.120Z,93771.78
2018-04-23T03:41:08.722Z,93763.58
2018-04-23T03:43:36.276Z,93758.62
2018-04-23T03:46:03.819Z,93758.52
2018-04-23T03:48:31.706Z,93751.16
2018-04-23T03:50:59.343Z,93749.34
2018-04-23T03:53:26.899Z,93745.80
2018-04-23T03:55:54.470Z,93748.89
2018-04-23T03:58:22.017Z,93739.08
2018-04-23T04:00:49.562Z,93742.20
2018-04-23T04:03:17.133Z,93734.96
2018-04-23T04:05:44.706Z,93739.08
2018-04-23T04:08:12.251Z,93736.77
2018-04-23T04:10:39.936Z,93735.41
2018-04-23T04:13:19.002Z,93735.53
2018-04-23T04:15:58.326Z,93737.48
2018-04-23T04:18:37.645Z,93736.02
2018-04-23T04:21:05.520Z,93735.96
2018-04-23T04:23:33.979Z,93742.80
2018-04-23T04:26:01.545Z,93728.59
2018-04-23T04:28:29.267Z,93736.63
2018-04-23T04:30:56.832Z,93724.61
2018-04-23T04:33:24.371Z,93728.39
2018-04-23T04:35:52.231Z,93720.84
2018-04-23T04:38:19.831Z,93733.93
2018-04-23T04:40:47.348Z,93722.80
2018-04-23T04:43:14.913Z,93725.91
2018-04-23T04:45:42.452Z,93733.39
2018-04-23T04:48:10.029Z,93728.08
2018-04-23T04:50:37.579Z,93733.13
2018-04-23T04:53:05.121Z,93738.14
2018-04-23T04:55:32.709Z,93734.94
2018-04-23T04:58:00.277Z,93729.80
2018-04-23T05:00:27.811Z,93724.81
2018-04-23T05:02:55.423Z,93728.45
2018-04-23T05:05:22.984Z,93726.36
2018-04-23T05:07:50.541Z,93731.20
2018-04-23T05:10:18.126Z,93725.11
2018-04-23T05:12:45.681Z,93721.91
2018-04-23T05:15:13.238Z,93725.72
2018-04-23T05:17:40.934Z,93727.72
2018-04-23T05:20:08.507Z,93733.61
2018-04-23T05:22:36.048Z,93740.31
2018-04-23T05:25:03.739Z,93742.12
2018-04-23T05:27:31.338Z,93739.55
2018-04-23T05:29:58.893Z,93750.41
2018-04-23T05:32:26.504Z,93748.22
2018-04-23T05:34:54.052Z,93754.17
2018-04-23T05:37:21.616Z,93758.04
2018-04-23T05:39:49.339Z,93763.68
2018-04-23T05:42:16.904Z,93764.97
2018-04-23T05:44:44.457Z,93763.47
2018-04-23T05:47:12.352Z,93765.47
2018-04-23T05:49:39.939Z,93764.06
2018-04-23T05:52:07.481Z,93761.92
2018-04-23T05:54:35.065Z,93767.17
2018-04-23T05:57:02.621Z,93772.33
2018-04-23T05:59:30.170Z,93773.80
2018-04-23T06:01:57.847Z,93767.08
2018-04-23T06:04:25.428Z,93766.76
2018-04-23T06:06:53.022Z,93767.58
2018-04-23T06:09:20.612Z,93768.14
2018-04-23T06:11:48.165Z,93769.06
2018-04-23T06:14:15.717Z,93764.52
2018-04-23T06:16:43.314Z,93767.25
2018-04-23T06:19:10.857Z,93769.06
2018-04-23T06:21:38.406Z,93766.01
2018-04-23T06:24:06.077Z,93767.20
2018-04-23T06:26:33.625Z,93765.82
2018-04-23T06:29:01.163Z,93759.34
2018-04-23T06:31:28.751Z,93755.53
2018-04-23T06:33:56.302Z,93750.72
2018-04-23T06:36:23.868Z,93747.33
2018-04-23T06:38:51.468Z,93753.20
2018-04-23T06:41:19.016Z,93750.07
2018-04-23T06:43:46.575Z,93756.45
2018-04-23T06:46:14.173Z,93759.27
2018-04-23T06:48:41.722Z,93757.50
2018-04-23T06:51:09.258Z,93759.92
2018-04-23T06:53:36.945Z,93753.44
2018-04-23T06:56:04.501Z,93749.17
2018-04-23T06:58:32.055Z,93752.70
2018-04-23T07:00:59.772Z,93757.23
2018-04-23T07:03:27.343Z,93757.33
2018-04-23T07:05:54.900Z,93762.33
2018-04-23T07:08:22.491Z,93763.74
2018-04-23T07:10:50.036Z,93759.78
2018-04-23T07:13:17.605Z,93761.56
2018-04-23T07:15:45.198Z,93756.74
2018-04-23T07:18:12.753Z,93762.14
2018-04-23T07:20:40.301Z,93762.71
2018-04-23T07:23:08.060Z,93768.04
2018-04-23T07:25:35.595Z,93767.88
2018-04-23T07:28:03.137Z,93767.07
2018-04-23T07:30:30.720Z,93771.32
2018-04-23T07:32:58.284Z,93765.94
2018-04-23T07:35:25.851Z,93759.76
2018-04-23T07:37:53.523Z,93761.88
2018-04-23T07:40:21.080Z,93764.53
2018-04-23T07:42:48.619Z,93769.23
2018-04-23T07:45:16.173Z,93768.91
2018-04-23T07:47:43.742Z,93769.53
2018-04-23T07:50:11.338Z,93771.76
2018-04-23T07:52:38.885Z,93777.47
2018-04-23T07:55:06.425Z,93778.64
2018-04-23T07:57:34.008Z,93788.80
2018-04-23T08:00:01.615Z,93786.20
2018-04-23T08:02:29.124Z,93783.25
2018-04-23T08:04:57.008Z,93789.52
2018-04-23T08:07:24.564Z,93788.30
2018-04-23T08:09:52.128Z,93795.25
2018-04-23T08:12:19.856Z,93801.06
2018-04-23T08:14:47.403Z,93802.58
2018-04-23T08:17:14.989Z,93796.04
2018-04-23T08:19:42.877Z,93797.67
2018-04-23T08:22:10.422Z,93789.27
2018-04-23T08:24:37.966Z,93792.56
2018-04-23T08:27:05.842Z,93794.41
2018-04-23T08:29:33.388Z,93796.45
2018-04-23T08:32:00.949Z,93798.39
2018-04-23T08:34:28.538Z,93798.34
2018-04-23T08:36:56.104Z,93794.17
2018-04-23T08:39:23.700Z,93792.66
2018-04-23T08:41:51.284Z,93793.42
2018-04-23T08:44:18.832Z,93792.88
2018-04-23T08:46:46.381Z,93791.91
2018-04-23T08:49:13.967Z,93789.72
2018-04-23T08:51:41.503Z,93787.19
2018-04-23T08:54:09.051Z,93789.75
2018-04-23T08:56:36.984Z,93784.98
2018-04-23T08:59:04.521Z,93787.84
2018-04-23T09:01:32.100Z,93785.20
2018-04-23T09:03:59.818Z,93777.43
2018-04-23T09:06:27.391Z,93773.95
2018-04-23T09:08:54.964Z,93771.73
2018-04-23T09:11:22.689Z,93769.77
2018-04-23T09:13:50.240Z,93774.25
2018-04-23T09:16:17.790Z,93769.97
2018-04-23T09:18:45.665Z,93770.73
2018-04-23T09:21:13.198Z,93766.63
2018-04-23T09:23:40.773Z,93765.48
2018-04-23T09:26:08.456Z,93764.13
2018-04-23T09:28:36.003Z,93756.42
2018-04-23T09:31:03.572Z,93764.50
2018-04-23T09:33:31.160Z,93757.89
2018-04-23T09:35:58.725Z,93756.11
2018-04-23T09:38:26.276Z,93761.22
2018-04-23T09:40:54.157Z,93757.13
2018-04-23T09:43:21.725Z,93756.63
2018-04-23T09:45:49.263Z,93757.41
2018-04-23T09:48:16.859Z,93755.47
2018-04-23T09:50:44.407Z,93756.22
2018-04-23T09:53:11.953Z,93750.93
2018-04-23T09:55:39.531Z,93747.45
2018-04-23T09:58:07.076Z,93747.62
2018-04-23T10:00:34.656Z,93739.32
2018-04-23T10:03:08.026Z,93744.95
2018-04-23T10:05:35.580Z,93737.03
2018-04-23T10:08:03.114Z,93734.89
2018-04-23T12:19:08.703Z,93643.77
2018-04-23T12:21:36.301Z,93636.23
2018-04-23T12:24:03.867Z,93634.58
2018-04-23T12:26:31.457Z,93633.75
2018-04-23T12:28:59.010Z,93632.17
2018-04-23T12:31:26.547Z,93622.59
2018-04-23T12:33:54.223Z,93621.87
2018-04-23T12:36:21.787Z,93621.09
2018-04-23T12:38:49.319Z,93621.22
2018-04-23T12:41:16.981Z,93612.30
2018-04-23T12:43:44.548Z,93616.25
2018-04-23T12:46:12.104Z,93618.06
2018-04-23T12:48:39.700Z,93608.97
2018-04-23T12:51:07.269Z,93612.29
2018-04-23T12:53:34.817Z,93607.20
2018-04-23T12:56:02.391Z,93605.81
2018-04-23T12:58:29.989Z,93608.01
2018-04-23T13:00:57.537Z,93602.77
2018-04-23T13:03:25.143Z,93602.07
2018-04-23T13:05:52.679Z,93597.57
2018-04-23T13:08:20.221Z,93595.14
2018-04-23T13:10:47.912Z,93598.80
2018-04-23T13:13:15.443Z,93588.66
2018-04-23T13:15:42.983Z,93589.73
2018-04-23T13:18:10.639Z,93585.97
2018-04-23T13:20:38.182Z,93589.92
2018-04-23T13:23:05.721Z,93588.73
2018-04-23T13:25:33.805Z,93590.20
2018-04-23T13:28:01.362Z,93589.19
2018-04-23T13:30:28.900Z,93585.01
2018-04-23T13:32:56.464Z,93581.42
2018-04-23T13:35:23.999Z,93583.98
2018-04-23T13:37:51.532Z,93581.11
2018-04-23T13:40:19.102Z,93585.14
2018-04-23T13:42:46.652Z,93577.41
2018-04-23T13:45:14.186Z,93571.41
2018-04-23T13:47:41.749Z,93573.66
2018-04-23T13:50:09.370Z,93572.66
2018-04-23T13:52:36.881Z,93573.22
2018-04-23T13:55:04.697Z,93563.02
2018-04-23T13:57:32.267Z,93575.45
2018-04-23T13:59:59.799Z,93572.30
2018-04-23T14:02:27.694Z,93568.02
2018-04-23T14:04:55.251Z,93571.32
2018-04-23T14:07:22.780Z,93568.91
2018-04-23T14:09:50.394Z,93571.42
2018-04-23T14:12:17.927Z,93570.30
2018-04-23T14:14:45.476Z,93568.28
2018-04-23T14:17:13.196Z,93568.83
2018-04-23T14:19:40.739Z,93570.77
2018-04-23T14:22:08.287Z,93568.20
2018-04-23T14:24:35.857Z,93566.11
2018-04-23T14:27:03.404Z,93564.50
2018-04-23T14:29:30.983Z,93557.34
2018-04-23T14:31:58.538Z,93553.48
2018-04-23T14:34:26.082Z,93553.08
2018-04-23T14:36:53.613Z,93555.92
2018-04-23T14:39:21.370Z,93557.52
2018-04-23T14:41:48.913Z,93557.93
2018-04-23T14:44:16.451Z,93556.79
2018-04-23T14:46:44.123Z,93550.85
2018-04-23T14:49:11.668Z,93553.59
2018-04-23T14:51:39.227Z,93554.17
2018-04-23T14:54:06.790Z,93554.95
2018-04-23T14:56:34.361Z,93551.97
2018-04-23T14:59:01.909Z,93556.66
2018-04-23T15:01:29.553Z,93558.59
2018-04-23T15:03:58.287Z,93554.77
2018-04-23T15:06:25.827Z,93558.06
2018-04-23T15:08:53.408Z,93561.94
2018-04-23T15:11:20.964Z,93557.09
2018-04-23T15:13:48.499Z,93561.91
2018-04-23T15:16:17.197Z,93557.50
2018-04-23T15:18:44.755Z,93550.95
2018-04-23T15:21:12.310Z,93554.30
2018-04-23T15:23:40.175Z,93552.37
2018-04-23T15:26:07.731Z,93548.58
2018-04-23T15:28:35.277Z,93546.40
2018-04-23T15:31:02.876Z,93543.59
2018-04-23T15:33:30.419Z,93545.27
2018-04-23T15:35:57.970Z,93552.22
2018-04-23T15:38:25.664Z,93554.58
2018-04-23T15:40:53.217Z,93547.77
2018-04-23T15:43:20.752Z,93556.50
2018-04-23T15:45:48.301Z,93559.06
2018-04-23T15:48:15.844Z,93567.34
2018-04-23T15:50:43.440Z,93573.80
2018-04-23T15:53:10.984Z,93567.99
2018-04-23T15:55:38.524Z,93568.21
2018-04-23T15:58:06.117Z,93565.27
2018-04-23T16:00:33.675Z,93571.78
2018-04-23T16:03:01.202Z,93572.53
2018-04-23T16:05:28.808Z,93577.59
2018-04-23T16:07:56.355Z,93589.48
2018-04-23T16:10:23.921Z,93585.93
2018-04-23T16:12:51.534Z,93589.08
2018-04-23T16:15:19.085Z,93595.88
2018-04-23T16:17:46.643Z,93599.50
2018-04-23T16:20:14.224Z,93600.77
2018-04-23T16:22:41.779Z,93603.78
2018-04-23T16:25:09.325Z,93607.22
2018-04-23T16:27:37.171Z,93603.88
2018-04-23T16:30:04.776Z,93614.69
2018-04-23T16:32:32.295Z,93614.02
2018-04-23T16:34:59.865Z,93616.03
2018-04-23T16:37:27.433Z,93622.18
2018-04-23T16:39:54.977Z,93625.09
2018-04-23T16:42:22.701Z,93623.52
2018-04-23T16:44:50.545Z,93630.46
2018-04-23T16:47:17.837Z,93627.77
2018-04-23T16:49:45.433Z,93633.42
2018-04-23T16:52:12.973Z,93629.37
2018-04-23T16:54:40.551Z,93634.33
2018-04-23T16:57:08.285Z,93634.59
2018-04-23T16:59:35.840Z,93634.61
2018-04-23T17:02:03.389Z,93641.43
2018-04-23T17:04:31.081Z,93648.68
2018-04-23T17:06:58.639Z,93650.64
2018-04-23T17:09:26.184Z,93651.53
2018-04-23T17:11:54.032Z,93657.13
2018-04-23T17:14:21.565Z,93660.70
2018-04-23T17:16:49.109Z,93660.05
2018-04-23T17:19:16.772Z,93658.16
2018-04-23T17:21:44.347Z,93662.08
2018-04-23T17:24:11.895Z,93666.08
2018-04-23T17:26:39.590Z,93667.92
2018-04-23T17:29:07.149Z,93672.38
2018-04-23T17:31:34.682Z,93673.42
2018-04-23T17:34:02.369Z,93674.47
2018-04-23T17:36:29.940Z,93677.03
2018-04-23T17:38:57.514Z,93679.12
2018-04-23T17:41:25.192Z,93689.64
2018-04-23T17:43:52.745Z,93689.79
2018-04-23T17:46:20.315Z,93690.34
2018-04-23T17:48:47.879Z,93693.61
2018-04-23T17:51:15.471Z,93694.52
2018-04-23T17:53:43.020Z,93700.31
2018-04-23T17:56:11.655Z,93706.35
2018-04-23T17:58:39.214Z,93705.16
2018-04-23T18:01:06.825Z,93702.31
2018-04-23T18:03:34.520Z,93703.78
2018-04-23T18:06:02.084Z,93701.34
2018-04-23T18:08:29.628Z,93698.72
2018-04-23T18:10:57.471Z,93701.86
2018-04-23T18:13:25.093Z,93701.74
2018-04-23T18:15:52.741Z,93710.38
2018-04-23T18:18:20.325Z,93709.57
2018-04-23T18:20:47.854Z,93715.62
2018-04-23T18:23:15.400Z,93714.67
2018-04-23T18:25:43.071Z,93723.54
2018-04-23T18:28:10.661Z,93727.18
2018-04-23T18:30:38.233Z,93729.66
2018-04-23T18:33:05.844Z,93725.40
2018-04-23T18:35:33.427Z,93728.47
2018-04-23T18:38:01.011Z,93729.34
2018-04-23T18:40:28.709Z,93731.06
2018-04-23T18:42:56.346Z,93731.66
2018-04-23T18:45:23.945Z,93737.55
2018-04-23T18:47:51.840Z,93737.03
2018-04-23T18:50:19.405Z,93736.47
2018-04-23T18:52:47.021Z,93741.14
2018-04-23T18:55:14.775Z,93742.14
2018-04-23T18:57:42.324Z,93737.17
2018-04-23T19:00:09.892Z,93745.16
2018-04-23T19:02:37.592Z,93744.39
2018-04-23T19:05:05.186Z,93743.19
2018-04-23T19:07:32.761Z,93751.44
2018-04-23T19:10:00.641Z,93753.84
2018-04-23T19:12:28.190Z,93754.95
2018-04-23T19:14:55.735Z,93751.73
2018-04-23T19:17:23.454Z,93749.59
2018-04-23T19:19:50.996Z,93750.42
2018-04-23T19:22:18.565Z,93753.20
2018-04-23T19:24:46.231Z,93752.34
2018-04-23T19:27:13.840Z,93762.44
2018-04-23T19:29:41.383Z,93756.61
2018-04-23T19:32:08.973Z,93755.14
2018-04-23T19:34:36.507Z,93754.67
2018-04-23T19:37:04.069Z,93752.13
2018-04-23T19:39:31.942Z,93750.55
2018-04-23T19:41:59.521Z,93753.82
2018-04-23T19:44:27.068Z,93747.80
2018-04-23T19:46:54.649Z,93756.02
2018-04-23T19:49:22.217Z,93755.75
2018-04-23T19:51:49.779Z,93761.11
2018-04-23T19:54:17.386Z,93761.66
2018-04-23T19:56:44.959Z,93759.20
2018-04-23T19:59:12.748Z,93761.01
2018-04-23T20:01:40.357Z,93761.59
2018-04-23T20:04:08.007Z,93760.98
2018-04-23T20:06:35.577Z,93763.92
2018-04-23T20:09:03.335Z,93760.80
2018-04-23T20:11:30.889Z,93763.11
2018-04-23T20:13:58.457Z,93762.25
2018-04-23T20:16:26.041Z,93759.64
2018-04-23T20:18:54.326Z,93758.92
2018-04-23T20:21:21.976Z,93758.51
2018-04-23T20:23:49.655Z,93762.41
2018-04-23T20:26:17.220Z,93766.52
2018-04-23T20:28:44.789Z,93765.87
2018-04-23T20:31:12.508Z,93761.78
2018-04-23T20:33:40.068Z,93761.95
2018-04-23T20:36:07.632Z,93763.22
2018-04-23T20:38:35.221Z,93764.07
2018-04-23T20:41:02.773Z,93759.89
2018-04-23T20:43:30.328Z,93763.22
2018-04-23T20:45:57.878Z,93767.22
2018-04-23T20:48:25.561Z,93765.42
2018-04-23T20:50:53.298Z,93768.60
2018-04-23T20:53:20.856Z,93769.83
2018-04-23T20:55:48.395Z,93763.33
2018-04-23T20:58:16.069Z,93768.58
2018-04-23T21:00:43.643Z,93771.25
2018-04-23T21:03:11.195Z,93769.66
2018-04-23T21:05:38.898Z,93769.70
2018-04-23T21:08:06.430Z,93774.66
2018-04-23T21:10:33.987Z,93774.89
2018-04-23T21:13:01.668Z,93776.66
2018-04-23T21:15:29.221Z,93780.97
2018-04-23T21:17:56.772Z,93781.48
2018-04-23T21:20:24.347Z,93780.13
2018-04-23T21:22:51.891Z,93782.78
2018-04-23T21:25:19.421Z,93783.13
2018-04-23T21:27:47.025Z,93787.50
2018-04-23T21:30:14.553Z,93792.09
2018-04-23T21:32:42.142Z,93790.28
2018-04-23T21:35:09.812Z,93787.63
2018-04-23T21:37:37.395Z,93792.56
2018-04-23T21:40:04.936Z,93784.44
2018-04-23T21:42:32.595Z,93788.95
2018-04-23T21:45:00.192Z,93797.14
2018-04-23T21:47:27.743Z,93794.89
2018-04-23T21:49:55.426Z,93798.55
2018-04-23T21:52:22.967Z,93793.62
2018-04-23T21:54:50.508Z,93792.44
2018-04-23T21:57:18.195Z,93796.45
2018-04-23T21:59:45.751Z,93797.59
2018-04-23T22:02:13.288Z,93799.71
2018-04-23T22:04:41.036Z,93799.89
2018-04-23T22:07:08.573Z,93801.22
2018-04-23T22:09:36.118Z,93802.95
2018-04-23T22:12:03.707Z,93799.23
2018-04-23T22:14:31.256Z,93801.78
2018-04-23T22:16:58.865Z,93799.77
2018-04-23T22:19:26.438Z,93801.94
2018-04-23T22:21:53.982Z,93803.00
2018-04-23T22:24:21.513Z,93798.98
2018-04-23T22:26:49.226Z,93799.95
2018-04-23T22:29:16.783Z,93798.43
2018-04-23T22:31:44.340Z,93796.20
2018-04-23T22:34:12.046Z,93797.56
2018-04-23T22:36:39.596Z,93796.48
2018-04-23T22:39:07.136Z,93794.54
2018-04-23T22:41:34.866Z,93798.16
2018-04-23T22:44:02.458Z,93789.84
2018-04-23T22:46:29.984Z,93796.69
2018-04-23T22:48:57.532Z,93791.81
2018-04-23T22:51:25.076Z,93792.67
2018-04-23T22:53:52.606Z,93795.05
2018-04-23T22:56:20.183Z,93793.55
2018-04-23T22:58:47.731Z,93794.67
2018-04-23T23:01:15.277Z,93794.79
2018-04-23T23:03:42.947Z,93785.33
2018-04-23T23:06:10.495Z,93788.86
2018-04-23T23:08:38.013Z,93786.86
2018-04-23T23:11:05.714Z,93787.38
2018-04-23T23:13:33.259Z,93786.27
2018-04-23T23:16:00.824Z,93784.80
2018-04-23T23:18:28.548Z,93779.95
2018-04-23T23:20:56.087Z,93782.23
2018-04-23T23:23:23.636Z,93785.75
2018-04-23T23:25:51.220Z,93785.12
2018-04-23T23:28:18.763Z,93785.90
2018-04-23T23:30:46.286Z,93786.56
2018-04-23T23:33:13.871Z,93784.59
2018-04-23T23:35:41.407Z,93782.21
2018-04-23T23:38:08.968Z,93786.94
2018-04-23T23:40:36.538Z,93781.18
2018-04-23T23:43:04.089Z,93783.60
2018-04-23T23:45:31.762Z,93785.23
2018-04-23T23:47:59.614Z,93788.72
2018-04-23T23:50:27.175Z,93780.30
2018-04-23T23:52:54.716Z,93781.31
2018-04-23T23:55:22.577Z,93776.00
2018-04-23T23:57:50.117Z,93779.08
